PRBRB SBTG-SDCO
Flight info
| Callsign | PRBRB |
|---|---|
| Flight time | 1h 16m |
| Altitude | FL250 |
| Route | Z22 ANSOK ASETA |
| Aircraft | BE9L/L-VGDW/C |
Departure
| Time | 2026-05-03 20:27 |
|---|---|
| Airport | Plínio Alarcom Airport (SBTG) |
Arrival
| Time | 2026-05-03 21:43 |
|---|---|
| Airport | Sorocaba Airport (SDCO) |
| Time | Latitude | Longitude | Altitude | Speed | Heading |
|---|---|---|---|---|---|
| 2026-05-03 20:15 | -20.75135 | -51.68022 | 1055 ft | 0 kts | 53° |
| 2026-05-03 20:15 | -20.75135 | -51.68021 | 1055 ft | 0 kts | 53° |
| 2026-05-03 20:16 | -20.75134 | -51.68021 | 1055 ft | 0 kts | 53° |
| 2026-05-03 20:17 | -20.75134 | -51.68020 | 1055 ft | 0 kts | 53° |
| 2026-05-03 20:18 | -20.75133 | -51.68020 | 1055 ft | 0 kts | 53° |
| 2026-05-03 20:19 | -20.75133 | -51.68019 | 1055 ft | 0 kts | 53° |
| 2026-05-03 20:21 | -20.75132 | -51.68019 | 1055 ft | 0 kts | 53° |
| 2026-05-03 20:21 | -20.75132 | -51.68018 | 1055 ft | 0 kts | 53° |
| 2026-05-03 20:23 | -20.75132 | -51.68017 | 1055 ft | 0 kts | 53° |
| 2026-05-03 20:24 | -20.75131 | -51.68017 | 1055 ft | 0 kts | 53° |
| 2026-05-03 20:25 | -20.75131 | -51.68016 | 1055 ft | 0 kts | 53° |
| 2026-05-03 20:26 | -20.75098 | -51.67969 | 1055 ft | 28 kts | 53° |
| 2026-05-03 20:26 | -20.74834 | -51.67577 | 1056 ft | 94 kts | 54° |
| 2026-05-03 20:27 | -20.74425 | -51.67036 | 1392 ft | 97 kts | 46° |
| 2026-05-03 20:27 | -20.73867 | -51.66407 | 1568 ft | 125 kts | 71° |
| 2026-05-03 20:27 | -20.73973 | -51.65565 | 2056 ft | 132 kts | 126° |
| 2026-05-03 20:27 | -20.74886 | -51.65011 | 2118 ft | 162 kts | 156° |
| 2026-05-03 20:28 | -20.75834 | -51.64457 | 2689 ft | 153 kts | 145° |
| 2026-05-03 20:28 | -20.76795 | -51.63765 | 2696 ft | 181 kts | 142° |
| 2026-05-03 20:28 | -20.77785 | -51.62898 | 2911 ft | 187 kts | 136° |
| 2026-05-03 20:28 | -20.78717 | -51.61909 | 3165 ft | 190 kts | 131° |
| 2026-05-03 20:29 | -20.79599 | -51.60850 | 3415 ft | 192 kts | 129° |
| 2026-05-03 20:29 | -20.80448 | -51.59746 | 3664 ft | 194 kts | 127° |
| 2026-05-03 20:29 | -20.81283 | -51.58605 | 3914 ft | 195 kts | 126° |
| 2026-05-03 20:29 | -20.82099 | -51.57451 | 4162 ft | 196 kts | 125° |
| 2026-05-03 20:30 | -20.82911 | -51.56279 | 4411 ft | 197 kts | 125° |
| 2026-05-03 20:30 | -20.83715 | -51.55103 | 4660 ft | 197 kts | 124° |
| 2026-05-03 20:30 | -20.84521 | -51.53914 | 4909 ft | 197 kts | 124° |
| 2026-05-03 20:30 | -20.85319 | -51.52727 | 5157 ft | 197 kts | 124° |
| 2026-05-03 20:31 | -20.86119 | -51.51536 | 5406 ft | 198 kts | 124° |
| 2026-05-03 20:31 | -20.86915 | -51.50344 | 5653 ft | 198 kts | 124° |
| 2026-05-03 20:31 | -20.87715 | -51.49146 | 5902 ft | 198 kts | 124° |
| 2026-05-03 20:31 | -20.88512 | -51.47950 | 6150 ft | 198 kts | 124° |
| 2026-05-03 20:32 | -20.89311 | -51.46750 | 6399 ft | 199 kts | 124° |
| 2026-05-03 20:32 | -20.90110 | -51.45551 | 6647 ft | 199 kts | 124° |
| 2026-05-03 20:32 | -20.90912 | -51.44344 | 6896 ft | 199 kts | 124° |
| 2026-05-03 20:32 | -20.91713 | -51.43139 | 7144 ft | 199 kts | 124° |
| 2026-05-03 20:33 | -20.92512 | -51.41936 | 7392 ft | 199 kts | 124° |
| 2026-05-03 20:33 | -20.93312 | -51.40732 | 7640 ft | 199 kts | 124° |
| 2026-05-03 20:33 | -20.94114 | -51.39525 | 7888 ft | 199 kts | 124° |
| 2026-05-03 20:33 | -20.94916 | -51.38318 | 8136 ft | 199 kts | 124° |
| 2026-05-03 20:34 | -20.95717 | -51.37111 | 8384 ft | 199 kts | 124° |
| 2026-05-03 20:34 | -20.96516 | -51.35907 | 8631 ft | 199 kts | 124° |
| 2026-05-03 20:34 | -20.97317 | -51.34700 | 8879 ft | 199 kts | 124° |
| 2026-05-03 20:34 | -20.98119 | -51.33491 | 9127 ft | 199 kts | 124° |
| 2026-05-03 20:35 | -20.98914 | -51.32292 | 9374 ft | 199 kts | 124° |
| 2026-05-03 20:35 | -20.99712 | -51.31088 | 9622 ft | 198 kts | 124° |
| 2026-05-03 20:35 | -21.00508 | -51.29888 | 9869 ft | 198 kts | 124° |
| 2026-05-03 20:35 | -21.01304 | -51.28688 | 10116 ft | 198 kts | 124° |
| 2026-05-03 20:36 | -21.02098 | -51.27490 | 10363 ft | 198 kts | 124° |
| 2026-05-03 20:36 | -21.02893 | -51.26290 | 10611 ft | 197 kts | 124° |
| 2026-05-03 20:36 | -21.03683 | -51.25097 | 10858 ft | 197 kts | 124° |
| 2026-05-03 20:36 | -21.04473 | -51.23903 | 11105 ft | 197 kts | 124° |
| 2026-05-03 20:37 | -21.05263 | -51.22710 | 11352 ft | 197 kts | 124° |
| 2026-05-03 20:37 | -21.06053 | -51.21517 | 11599 ft | 196 kts | 124° |
| 2026-05-03 20:37 | -21.06841 | -51.20327 | 11845 ft | 196 kts | 124° |
| 2026-05-03 20:37 | -21.07627 | -51.19139 | 12090 ft | 196 kts | 124° |
| 2026-05-03 20:38 | -21.08416 | -51.17946 | 12336 ft | 197 kts | 124° |
| 2026-05-03 20:38 | -21.09207 | -51.16750 | 12582 ft | 197 kts | 124° |
| 2026-05-03 20:38 | -21.09999 | -51.15552 | 12830 ft | 198 kts | 124° |
| 2026-05-03 20:38 | -21.10790 | -51.14356 | 13076 ft | 198 kts | 124° |
| 2026-05-03 20:39 | -21.11584 | -51.13154 | 13322 ft | 198 kts | 124° |
| 2026-05-03 20:39 | -21.12378 | -51.11950 | 13575 ft | 198 kts | 126° |
| 2026-05-03 20:39 | -21.13170 | -51.10751 | 13822 ft | 197 kts | 126° |
| 2026-05-03 20:39 | -21.13958 | -51.09559 | 14067 ft | 197 kts | 126° |
| 2026-05-03 20:40 | -21.14750 | -51.08362 | 14306 ft | 197 kts | 124° |
| 2026-05-03 20:40 | -21.15544 | -51.07161 | 14554 ft | 198 kts | 124° |
| 2026-05-03 20:40 | -21.16333 | -51.05966 | 14800 ft | 197 kts | 124° |
| 2026-05-03 20:40 | -21.17123 | -51.04768 | 15048 ft | 197 kts | 124° |
| 2026-05-03 20:41 | -21.17914 | -51.03570 | 15295 ft | 196 kts | 124° |
| 2026-05-03 20:41 | -21.18699 | -51.02380 | 15547 ft | 195 kts | 124° |
| 2026-05-03 20:41 | -21.19478 | -51.01197 | 15784 ft | 195 kts | 125° |
| 2026-05-03 20:41 | -21.20258 | -51.00014 | 16029 ft | 195 kts | 126° |
| 2026-05-03 20:42 | -21.21037 | -50.98832 | 16274 ft | 194 kts | 126° |
| 2026-05-03 20:42 | -21.21811 | -50.97658 | 16518 ft | 194 kts | 125° |
| 2026-05-03 20:42 | -21.22587 | -50.96479 | 16756 ft | 194 kts | 125° |
| 2026-05-03 20:42 | -21.23373 | -50.95287 | 16907 ft | 199 kts | 125° |
| 2026-05-03 20:43 | -21.24183 | -50.94059 | 16975 ft | 207 kts | 125° |
| 2026-05-03 20:43 | -21.25032 | -50.92772 | 16988 ft | 216 kts | 125° |
| 2026-05-03 20:43 | -21.25910 | -50.91440 | 16987 ft | 224 kts | 125° |
| 2026-05-03 20:43 | -21.26820 | -50.90061 | 16985 ft | 230 kts | 125° |
| 2026-05-03 20:44 | -21.27748 | -50.88655 | 16980 ft | 234 kts | 125° |
| 2026-05-03 20:44 | -21.28694 | -50.87219 | 16976 ft | 238 kts | 125° |
| 2026-05-03 20:44 | -21.29657 | -50.85758 | 16974 ft | 241 kts | 125° |
| 2026-05-03 20:44 | -21.30625 | -50.84290 | 16971 ft | 243 kts | 125° |
| 2026-05-03 20:45 | -21.31602 | -50.82806 | 16969 ft | 245 kts | 125° |
| 2026-05-03 20:45 | -21.32584 | -50.81314 | 16968 ft | 246 kts | 125° |
| 2026-05-03 20:45 | -21.33567 | -50.79821 | 16968 ft | 246 kts | 125° |
| 2026-05-03 20:45 | -21.34556 | -50.78316 | 16968 ft | 247 kts | 125° |
| 2026-05-03 20:46 | -21.35543 | -50.76816 | 16968 ft | 247 kts | 125° |
| 2026-05-03 20:46 | -21.36533 | -50.75309 | 16968 ft | 248 kts | 125° |
| 2026-05-03 20:46 | -21.37527 | -50.73796 | 16968 ft | 248 kts | 125° |
| 2026-05-03 20:46 | -21.38516 | -50.72289 | 16968 ft | 248 kts | 125° |
| 2026-05-03 20:47 | -21.39511 | -50.70774 | 16968 ft | 248 kts | 125° |
| 2026-05-03 20:47 | -21.40502 | -50.69264 | 16969 ft | 248 kts | 125° |
| 2026-05-03 20:47 | -21.41496 | -50.67747 | 16969 ft | 248 kts | 125° |
| 2026-05-03 20:47 | -21.42488 | -50.66236 | 16969 ft | 248 kts | 125° |
| 2026-05-03 20:48 | -21.43478 | -50.64725 | 16969 ft | 249 kts | 125° |
| 2026-05-03 20:48 | -21.44467 | -50.63217 | 17107 ft | 242 kts | 125° |
| 2026-05-03 20:48 | -21.45403 | -50.61787 | 17447 ft | 229 kts | 125° |
| 2026-05-03 20:48 | -21.46293 | -50.60424 | 17772 ft | 219 kts | 124° |
| 2026-05-03 20:49 | -21.47153 | -50.59107 | 18041 ft | 213 kts | 124° |
| 2026-05-03 20:49 | -21.47990 | -50.57823 | 18304 ft | 208 kts | 124° |
| 2026-05-03 20:49 | -21.48812 | -50.56560 | 18559 ft | 205 kts | 127° |
| 2026-05-03 20:49 | -21.49618 | -50.55321 | 18821 ft | 202 kts | 127° |
| 2026-05-03 20:50 | -21.50416 | -50.54097 | 19084 ft | 199 kts | 127° |
| 2026-05-03 20:50 | -21.51203 | -50.52889 | 19348 ft | 196 kts | 127° |
| 2026-05-03 20:50 | -21.51975 | -50.51705 | 19610 ft | 193 kts | 127° |
| 2026-05-03 20:50 | -21.52741 | -50.50531 | 19872 ft | 191 kts | 127° |
| 2026-05-03 20:51 | -21.53495 | -50.49374 | 20134 ft | 188 kts | 127° |
| 2026-05-03 20:51 | -21.54241 | -50.48230 | 20396 ft | 186 kts | 127° |
| 2026-05-03 20:51 | -21.54975 | -50.47103 | 20657 ft | 183 kts | 127° |
| 2026-05-03 20:51 | -21.55700 | -50.45991 | 20917 ft | 181 kts | 127° |
| 2026-05-03 20:52 | -21.56413 | -50.44897 | 21175 ft | 178 kts | 127° |
| 2026-05-03 20:52 | -21.57114 | -50.43820 | 21431 ft | 175 kts | 127° |
| 2026-05-03 20:52 | -21.57808 | -50.42755 | 21686 ft | 172 kts | 127° |
| 2026-05-03 20:52 | -21.58486 | -50.41713 | 21937 ft | 169 kts | 127° |
| 2026-05-03 20:53 | -21.59154 | -50.40686 | 22181 ft | 167 kts | 128° |
| 2026-05-03 20:53 | -21.59822 | -50.39662 | 22348 ft | 170 kts | 128° |
| 2026-05-03 20:53 | -21.60502 | -50.38619 | 22542 ft | 170 kts | 128° |
| 2026-05-03 20:53 | -21.61178 | -50.37582 | 22728 ft | 171 kts | 128° |
| 2026-05-03 20:54 | -21.61865 | -50.36529 | 22891 ft | 173 kts | 128° |
| 2026-05-03 20:54 | -21.63249 | -50.34406 | 23235 ft | 175 kts | 128° |
| 2026-05-03 20:54 | -21.63946 | -50.33338 | 23415 ft | 175 kts | 128° |
| 2026-05-03 20:55 | -21.64646 | -50.32264 | 23569 ft | 177 kts | 128° |
| 2026-05-03 20:55 | -21.65355 | -50.31176 | 23732 ft | 178 kts | 128° |
| 2026-05-03 20:55 | -21.66063 | -50.30089 | 23890 ft | 179 kts | 128° |
| 2026-05-03 20:55 | -21.66780 | -50.28989 | 24038 ft | 180 kts | 128° |
| 2026-05-03 20:56 | -21.67496 | -50.27889 | 24195 ft | 181 kts | 128° |
| 2026-05-03 20:56 | -21.68216 | -50.26784 | 24335 ft | 182 kts | 128° |
| 2026-05-03 20:56 | -21.68943 | -50.25668 | 24484 ft | 183 kts | 128° |
| 2026-05-03 20:56 | -21.69673 | -50.24545 | 24623 ft | 184 kts | 128° |
| 2026-05-03 20:57 | -21.70404 | -50.23422 | 24761 ft | 185 kts | 128° |
| 2026-05-03 20:57 | -21.71141 | -50.22289 | 24898 ft | 185 kts | 128° |
| 2026-05-03 20:57 | -21.71880 | -50.21153 | 25027 ft | 187 kts | 128° |
| 2026-05-03 20:57 | -21.72629 | -50.20003 | 25123 ft | 190 kts | 128° |
| 2026-05-03 20:58 | -21.73400 | -50.18820 | 25161 ft | 198 kts | 128° |
| 2026-05-03 20:58 | -21.74209 | -50.17582 | 25171 ft | 206 kts | 128° |
| 2026-05-03 20:58 | -21.75043 | -50.16304 | 25170 ft | 214 kts | 128° |
| 2026-05-03 20:58 | -21.75917 | -50.14968 | 25165 ft | 222 kts | 127° |
| 2026-05-03 20:59 | -21.76810 | -50.13598 | 25161 ft | 228 kts | 127° |
| 2026-05-03 20:59 | -21.77737 | -50.12176 | 25158 ft | 234 kts | 127° |
| 2026-05-03 20:59 | -21.78676 | -50.10735 | 25155 ft | 239 kts | 127° |
| 2026-05-03 20:59 | -21.79639 | -50.09256 | 25153 ft | 243 kts | 127° |
| 2026-05-03 21:00 | -21.80615 | -50.07757 | 25152 ft | 247 kts | 126° |
| 2026-05-03 21:00 | -21.80933 | -50.07267 | 25151 ft | 248 kts | 126° |
| 2026-05-03 21:00 | -21.82598 | -50.04705 | 25149 ft | 252 kts | 126° |
| 2026-05-03 21:00 | -21.83607 | -50.03152 | 25149 ft | 254 kts | 126° |
| 2026-05-03 21:01 | -21.84621 | -50.01591 | 25148 ft | 256 kts | 126° |
| 2026-05-03 21:01 | -21.85642 | -50.00017 | 25147 ft | 258 kts | 126° |
| 2026-05-03 21:01 | -21.86671 | -49.98430 | 25147 ft | 259 kts | 126° |
| 2026-05-03 21:01 | -21.87704 | -49.96837 | 25147 ft | 260 kts | 126° |
| 2026-05-03 21:02 | -21.88741 | -49.95237 | 25146 ft | 262 kts | 126° |
| 2026-05-03 21:02 | -21.89780 | -49.93632 | 25146 ft | 262 kts | 126° |
| 2026-05-03 21:02 | -21.90817 | -49.92031 | 25146 ft | 263 kts | 125° |
| 2026-05-03 21:02 | -21.91869 | -49.90408 | 25145 ft | 264 kts | 125° |
| 2026-05-03 21:03 | -21.92918 | -49.88787 | 25145 ft | 264 kts | 125° |
| 2026-05-03 21:03 | -21.93965 | -49.87168 | 25145 ft | 265 kts | 125° |
| 2026-05-03 21:03 | -21.95019 | -49.85537 | 25145 ft | 265 kts | 125° |
| 2026-05-03 21:03 | -21.96071 | -49.83907 | 25145 ft | 266 kts | 125° |
| 2026-05-03 21:04 | -21.97122 | -49.82281 | 25145 ft | 266 kts | 125° |
| 2026-05-03 21:04 | -21.98180 | -49.80643 | 25145 ft | 266 kts | 124° |
| 2026-05-03 21:04 | -21.99236 | -49.79006 | 25145 ft | 267 kts | 124° |
| 2026-05-03 21:04 | -22.00288 | -49.77375 | 25145 ft | 267 kts | 124° |
| 2026-05-03 21:05 | -22.01347 | -49.75733 | 25145 ft | 267 kts | 124° |
| 2026-05-03 21:05 | -22.02404 | -49.74093 | 25145 ft | 267 kts | 124° |
| 2026-05-03 21:05 | -22.03463 | -49.72451 | 25145 ft | 267 kts | 124° |
| 2026-05-03 21:05 | -22.04522 | -49.70807 | 25145 ft | 267 kts | 124° |
| 2026-05-03 21:06 | -22.05577 | -49.69168 | 25145 ft | 267 kts | 124° |
| 2026-05-03 21:06 | -22.06638 | -49.67521 | 25145 ft | 268 kts | 124° |
| 2026-05-03 21:06 | -22.07695 | -49.65879 | 25145 ft | 268 kts | 124° |
| 2026-05-03 21:06 | -22.08756 | -49.64230 | 25145 ft | 268 kts | 124° |
| 2026-05-03 21:07 | -22.09814 | -49.62585 | 25145 ft | 268 kts | 124° |
| 2026-05-03 21:07 | -22.10871 | -49.60941 | 25145 ft | 268 kts | 124° |
| 2026-05-03 21:07 | -22.11928 | -49.59296 | 25145 ft | 268 kts | 123° |
| 2026-05-03 21:07 | -22.12989 | -49.57643 | 25145 ft | 268 kts | 123° |
| 2026-05-03 21:08 | -22.14046 | -49.55998 | 25145 ft | 268 kts | 124° |
| 2026-05-03 21:08 | -22.15101 | -49.54353 | 25145 ft | 268 kts | 125° |
| 2026-05-03 21:08 | -22.16157 | -49.52707 | 25145 ft | 268 kts | 125° |
| 2026-05-03 21:08 | -22.17218 | -49.51052 | 25145 ft | 268 kts | 125° |
| 2026-05-03 21:09 | -22.18276 | -49.49402 | 25145 ft | 268 kts | 126° |
| 2026-05-03 21:09 | -22.19336 | -49.47746 | 25145 ft | 268 kts | 126° |
| 2026-05-03 21:09 | -22.20391 | -49.46098 | 25145 ft | 268 kts | 127° |
| 2026-05-03 21:09 | -22.21446 | -49.44449 | 25148 ft | 267 kts | 129° |
| 2026-05-03 21:10 | -22.22498 | -49.42805 | 25146 ft | 266 kts | 130° |
| 2026-05-03 21:10 | -22.23543 | -49.41171 | 25144 ft | 265 kts | 130° |
| 2026-05-03 21:10 | -22.24587 | -49.39540 | 25142 ft | 265 kts | 130° |
| 2026-05-03 21:10 | -22.25627 | -49.37913 | 25143 ft | 264 kts | 130° |
| 2026-05-03 21:11 | -22.26668 | -49.36283 | 25144 ft | 263 kts | 130° |
| 2026-05-03 21:11 | -22.27701 | -49.34665 | 25143 ft | 263 kts | 130° |
| 2026-05-03 21:11 | -22.28733 | -49.33046 | 25146 ft | 262 kts | 131° |
| 2026-05-03 21:11 | -22.29762 | -49.31430 | 25145 ft | 261 kts | 131° |
| 2026-05-03 21:12 | -22.30785 | -49.29824 | 25143 ft | 260 kts | 131° |
| 2026-05-03 21:12 | -22.31808 | -49.28217 | 25142 ft | 259 kts | 131° |
| 2026-05-03 21:12 | -22.32824 | -49.26620 | 25135 ft | 260 kts | 127° |
| 2026-05-03 21:12 | -22.33847 | -49.25014 | 25137 ft | 261 kts | 126° |
| 2026-05-03 21:13 | -22.34870 | -49.23403 | 25142 ft | 261 kts | 126° |
| 2026-05-03 21:13 | -22.35899 | -49.21778 | 25144 ft | 262 kts | 122° |
| 2026-05-03 21:13 | -22.36927 | -49.20151 | 25146 ft | 263 kts | 122° |
| 2026-05-03 21:13 | -22.37966 | -49.18524 | 25146 ft | 264 kts | 125° |
| 2026-05-03 21:14 | -22.39090 | -49.16976 | 25146 ft | 265 kts | 128° |
| 2026-05-03 21:14 | -22.40288 | -49.15453 | 25146 ft | 265 kts | 130° |
| 2026-05-03 21:14 | -22.41511 | -49.13953 | 25145 ft | 266 kts | 131° |
| 2026-05-03 21:14 | -22.42740 | -49.12472 | 25145 ft | 266 kts | 131° |
| 2026-05-03 21:15 | -22.43984 | -49.10984 | 25145 ft | 267 kts | 131° |
| 2026-05-03 21:15 | -22.45226 | -49.09504 | 25145 ft | 267 kts | 131° |
| 2026-05-03 21:15 | -22.46473 | -49.08023 | 25145 ft | 267 kts | 131° |
| 2026-05-03 21:15 | -22.47723 | -49.06540 | 25145 ft | 267 kts | 132° |
| 2026-05-03 21:16 | -22.48973 | -49.05056 | 25145 ft | 268 kts | 132° |
| 2026-05-03 21:16 | -22.50225 | -49.03572 | 25145 ft | 268 kts | 132° |
| 2026-05-03 21:16 | -22.51472 | -49.02093 | 25145 ft | 268 kts | 132° |
| 2026-05-03 21:16 | -22.52728 | -49.00604 | 25145 ft | 268 kts | 132° |
| 2026-05-03 21:17 | -22.53986 | -48.99113 | 25145 ft | 268 kts | 132° |
| 2026-05-03 21:17 | -22.54819 | -48.98125 | 25145 ft | 268 kts | 132° |
| 2026-05-03 21:17 | -22.56491 | -48.96141 | 25145 ft | 268 kts | 132° |
| 2026-05-03 21:17 | -22.57750 | -48.94647 | 25145 ft | 268 kts | 132° |
| 2026-05-03 21:18 | -22.59003 | -48.93161 | 25145 ft | 268 kts | 132° |
| 2026-05-03 21:18 | -22.60257 | -48.91671 | 25145 ft | 268 kts | 132° |
| 2026-05-03 21:18 | -22.61511 | -48.90182 | 25145 ft | 268 kts | 131° |
| 2026-05-03 21:18 | -22.62769 | -48.88688 | 25145 ft | 269 kts | 131° |
| 2026-05-03 21:19 | -22.64024 | -48.87196 | 25145 ft | 269 kts | 131° |
| 2026-05-03 21:19 | -22.65278 | -48.85706 | 25145 ft | 269 kts | 131° |
| 2026-05-03 21:19 | -22.66534 | -48.84213 | 25145 ft | 269 kts | 131° |
| 2026-05-03 21:19 | -22.67788 | -48.82721 | 25145 ft | 269 kts | 131° |
| 2026-05-03 21:20 | -22.69042 | -48.81230 | 25145 ft | 269 kts | 131° |
| 2026-05-03 21:20 | -22.70297 | -48.79735 | 25145 ft | 269 kts | 131° |
| 2026-05-03 21:20 | -22.71552 | -48.78242 | 25145 ft | 269 kts | 131° |
| 2026-05-03 21:20 | -22.72810 | -48.76744 | 25145 ft | 269 kts | 131° |
| 2026-05-03 21:21 | -22.74062 | -48.75252 | 25145 ft | 269 kts | 131° |
| 2026-05-03 21:21 | -22.75303 | -48.73773 | 25145 ft | 269 kts | 131° |
| 2026-05-03 21:21 | -22.76557 | -48.72278 | 25145 ft | 269 kts | 131° |
| 2026-05-03 21:21 | -22.77812 | -48.70782 | 25145 ft | 269 kts | 131° |
| 2026-05-03 21:22 | -22.79064 | -48.69289 | 25145 ft | 269 kts | 131° |
| 2026-05-03 21:22 | -22.80317 | -48.67794 | 25145 ft | 269 kts | 131° |
| 2026-05-03 21:22 | -22.81576 | -48.66290 | 25145 ft | 269 kts | 131° |
| 2026-05-03 21:22 | -22.82831 | -48.64793 | 25145 ft | 269 kts | 131° |
| 2026-05-03 21:23 | -22.84085 | -48.63295 | 25145 ft | 269 kts | 131° |
| 2026-05-03 21:23 | -22.85335 | -48.61801 | 25145 ft | 269 kts | 131° |
| 2026-05-03 21:23 | -22.86589 | -48.60302 | 25145 ft | 269 kts | 131° |
| 2026-05-03 21:23 | -22.87849 | -48.58796 | 25145 ft | 269 kts | 131° |
| 2026-05-03 21:24 | -22.89102 | -48.57298 | 25145 ft | 269 kts | 131° |
| 2026-05-03 21:24 | -22.90354 | -48.55801 | 25145 ft | 269 kts | 131° |
| 2026-05-03 21:24 | -22.91608 | -48.54300 | 25145 ft | 269 kts | 131° |
| 2026-05-03 21:24 | -22.92862 | -48.52798 | 25145 ft | 269 kts | 131° |
| 2026-05-03 21:25 | -22.94118 | -48.51295 | 25145 ft | 269 kts | 131° |
| 2026-05-03 21:25 | -22.95369 | -48.49796 | 25145 ft | 269 kts | 131° |
| 2026-05-03 21:25 | -22.96622 | -48.48295 | 25145 ft | 269 kts | 131° |
| 2026-05-03 21:25 | -22.97877 | -48.46790 | 25145 ft | 269 kts | 131° |
| 2026-05-03 21:26 | -22.99132 | -48.45286 | 25145 ft | 269 kts | 131° |
| 2026-05-03 21:26 | -23.00379 | -48.43789 | 25145 ft | 269 kts | 131° |
| 2026-05-03 21:26 | -23.01635 | -48.42282 | 25145 ft | 269 kts | 131° |
| 2026-05-03 21:26 | -23.02890 | -48.40775 | 25145 ft | 269 kts | 131° |
| 2026-05-03 21:27 | -23.04142 | -48.39271 | 25145 ft | 269 kts | 131° |
| 2026-05-03 21:27 | -23.05391 | -48.37770 | 25145 ft | 269 kts | 131° |
| 2026-05-03 21:27 | -23.06648 | -48.36259 | 25145 ft | 269 kts | 131° |
| 2026-05-03 21:27 | -23.07883 | -48.34761 | 25172 ft | 266 kts | 139° |
| 2026-05-03 21:28 | -23.09108 | -48.33273 | 25172 ft | 262 kts | 140° |
| 2026-05-03 21:28 | -23.10314 | -48.31816 | 25165 ft | 259 kts | 140° |
| 2026-05-03 21:28 | -23.11512 | -48.30373 | 25162 ft | 257 kts | 140° |
| 2026-05-03 21:28 | -23.12704 | -48.28937 | 25160 ft | 255 kts | 140° |
| 2026-05-03 21:29 | -23.13881 | -48.27517 | 25160 ft | 253 kts | 140° |
| 2026-05-03 21:29 | -23.15046 | -48.26111 | 25163 ft | 251 kts | 140° |
| 2026-05-03 21:29 | -23.16212 | -48.24703 | 25165 ft | 250 kts | 140° |
| 2026-05-03 21:29 | -23.17372 | -48.23302 | 25166 ft | 249 kts | 140° |
| 2026-05-03 21:30 | -23.18524 | -48.21910 | 25167 ft | 248 kts | 140° |
| 2026-05-03 21:30 | -23.19678 | -48.20513 | 25168 ft | 248 kts | 140° |
| 2026-05-03 21:30 | -23.20824 | -48.19125 | 25169 ft | 247 kts | 140° |
| 2026-05-03 21:30 | -23.21971 | -48.17734 | 25171 ft | 247 kts | 140° |
| 2026-05-03 21:31 | -23.23113 | -48.16347 | 25171 ft | 247 kts | 140° |
| 2026-05-03 21:31 | -23.24252 | -48.14960 | 25171 ft | 246 kts | 140° |
| 2026-05-03 21:31 | -23.25387 | -48.13576 | 25171 ft | 246 kts | 140° |
| 2026-05-03 21:31 | -23.26520 | -48.12185 | 25171 ft | 246 kts | 140° |
| 2026-05-03 21:32 | -23.27569 | -48.10692 | 25171 ft | 252 kts | 130° |
| 2026-05-03 21:32 | -23.28426 | -48.09027 | 25172 ft | 255 kts | 123° |
| 2026-05-03 21:32 | -23.29174 | -48.07278 | 25173 ft | 256 kts | 120° |
| 2026-05-03 21:32 | -23.29860 | -48.05489 | 25172 ft | 257 kts | 118° |
| 2026-05-03 21:33 | -23.30511 | -48.03678 | 25171 ft | 258 kts | 117° |
| 2026-05-03 21:33 | -23.31138 | -48.01858 | 25173 ft | 258 kts | 116° |
| 2026-05-03 21:33 | -23.31753 | -48.00026 | 25174 ft | 258 kts | 116° |
| 2026-05-03 21:33 | -23.32358 | -47.98190 | 25175 ft | 259 kts | 116° |
| 2026-05-03 21:34 | -23.32959 | -47.96349 | 25175 ft | 259 kts | 116° |
| 2026-05-03 21:34 | -23.33556 | -47.94503 | 25176 ft | 259 kts | 115° |
| 2026-05-03 21:34 | -23.34151 | -47.92654 | 25176 ft | 259 kts | 115° |
| 2026-05-03 21:34 | -23.34741 | -47.90813 | 25176 ft | 259 kts | 115° |
| 2026-05-03 21:35 | -23.35334 | -47.88960 | 25176 ft | 260 kts | 115° |
| 2026-05-03 21:35 | -23.35925 | -47.87106 | 25176 ft | 260 kts | 115° |
| 2026-05-03 21:35 | -23.36516 | -47.85249 | 25176 ft | 260 kts | 115° |
| 2026-05-03 21:35 | -23.37105 | -47.83395 | 25176 ft | 260 kts | 115° |
| 2026-05-03 21:36 | -23.37693 | -47.81542 | 25176 ft | 260 kts | 115° |
| 2026-05-03 21:36 | -23.38254 | -47.79772 | 25175 ft | 260 kts | 115° |
| 2026-05-03 21:36 | -23.38844 | -47.77910 | 25174 ft | 260 kts | 115° |
| 2026-05-03 21:36 | -23.39432 | -47.76054 | 25173 ft | 260 kts | 115° |
| 2026-05-03 21:37 | -23.40020 | -47.74192 | 25173 ft | 260 kts | 115° |
| 2026-05-03 21:37 | -23.40607 | -47.72336 | 25173 ft | 261 kts | 115° |
| 2026-05-03 21:37 | -23.41194 | -47.70475 | 25173 ft | 261 kts | 115° |
| 2026-05-03 21:37 | -23.41777 | -47.68622 | 25070 ft | 258 kts | 115° |
| 2026-05-03 21:38 | -23.42364 | -47.66760 | 24736 ft | 263 kts | 115° |
| 2026-05-03 21:38 | -23.42798 | -47.65383 | 24487 ft | 266 kts | 115° |
| 2026-05-03 21:38 | -23.43345 | -47.63656 | 24096 ft | 272 kts | 114° |
| 2026-05-03 21:38 | -23.43967 | -47.61688 | 23613 ft | 279 kts | 109° |
| 2026-05-03 21:39 | -23.44615 | -47.59625 | 22523 ft | 304 kts | 110° |
| 2026-05-03 21:39 | -23.45339 | -47.57323 | 20890 ft | 335 kts | 110° |
| 2026-05-03 21:39 | -23.46060 | -47.55021 | 19388 ft | 322 kts | 109° |
| 2026-05-03 21:39 | -23.46631 | -47.53165 | 18056 ft | 315 kts | 109° |
| 2026-05-03 21:40 | -23.47295 | -47.50942 | 16419 ft | 306 kts | 109° |
| 2026-05-03 21:40 | -23.47885 | -47.48755 | 14625 ft | 297 kts | 105° |
| 2026-05-03 21:40 | -23.47717 | -47.46540 | 12331 ft | 304 kts | 61° |
| 2026-05-03 21:40 | -23.46066 | -47.45153 | 9295 ft | 318 kts | 27° |
| 2026-05-03 21:41 | -23.44771 | -47.44632 | 8109 ft | 310 kts | 19° |
| 2026-05-03 21:41 | -23.42819 | -47.44700 | 6259 ft | 280 kts | 333° |
| 2026-05-03 21:41 | -23.41559 | -47.46242 | 5275 ft | 261 kts | 288° |
| 2026-05-03 21:41 | -23.41786 | -47.47997 | 3832 ft | 257 kts | 249° |
| 2026-05-03 21:42 | -23.42736 | -47.49243 | 3646 ft | 202 kts | 184° |
| 2026-05-03 21:42 | -23.43841 | -47.49631 | 3796 ft | 153 kts | 202° |
| 2026-05-03 21:42 | -23.44907 | -47.49985 | 2827 ft | 157 kts | 183° |
| 2026-05-03 21:42 | -23.45853 | -47.49821 | 2444 ft | 131 kts | 150° |
| 2026-05-03 21:43 | -23.46608 | -47.49466 | 2251 ft | 112 kts | 164° |
| 2026-05-03 21:43 | -23.47288 | -47.49237 | 2087 ft | 93 kts | 148° |
| 2026-05-03 21:43 | -23.47797 | -47.48987 | 2083 ft | 74 kts | 161° |
| 2026-05-03 21:43 | -23.48047 | -47.48964 | 2082 ft | 0 kts | 242° |